Station: Cape Moreton

  Atmospheric Gas Attenuation - ITU Rec 676-11   --------------- db/100km ---------------
Date Time Temp RH % AH g/m3 Dew Point Wind Direction Speed kph Gust kph Barometer mB Rainfall Since 9am 24GHz 47GHz 76GHz 122GHz 134GHz 241GHz
27 02:00 24 89 19.36 22.1 11 13 1010.4 0 41.9 41.1 79.8 211.1 233.0 809.3
27 01:50 24.1 88 19.25 22 11 11 1010.4 0 41.6 40.8 79.1 209.4 231.0 802.2
27 01:40 24.1 87 19.03 21.8 13 15 1010.5 0 41.1 40.4 78.1 206.6 227.6 790.3
27 01:30 24.1 88 19.25 22 13 17 1010.6 0 41.6 40.8 79.1 209.4 231.0 802.3
27 01:20 24.1 87 19.03 21.8 13 15 1010.7 0 41.1 40.4 78.1 206.6 227.6 790.4
27 01:10 24.1 87 19.03 21.8 15 15 1010.9 0 41.1 40.4 78.1 206.7 227.6 790.5
27 01:00 24 87 18.93 21.7 15 20 1011 0 40.9 40.3 77.7 205.7 226.4 786.1
27 00:50 24.2 88 19.36 22.1 11 13 1010.9 0 41.8 41.0 79.6 210.6 232.5 807.4
27 00:40 24.2 87 19.14 21.9 15 19 1011 0 41.4 40.6 78.5 207.8 229.0 795.5
27 00:30 24.3 87 19.25 22 17 20 1011.1 0 41.6 40.8 79.0 208.9 230.5 800.4
27 00:20 24.3 88 19.47 22.2 19 20 1011.1 0 42.1 41.2 80.0 211.8 233.9 812.5
27 00:10 24.3 87 19.25 22 17 19 1011.3 0 41.6 40.8 79.0 209.0 230.5 800.6
27 00:00 24.2 88 19.36 22.1 17 20 1011.5 0 41.8 41.0 79.6 210.7 232.6 807.8
26 23:50 24.2 88 19.36 22.1 17 19 1011.4 0 41.8 41.0 79.6 210.7 232.6 807.7
26 23:40 24.3 87 19.25 22 17 20 1011.4 0 41.6 40.8 79.0 209.0 230.5 800.6
26 23:30 24.3 88 19.47 22.2 17 22 1011.5 0 42.0 41.2 80.1 211.8 234.0 812.7
26 23:20 24.3 88 19.47 22.2 19 20 1011.8 0 42.0 41.2 80.1 211.9 234.0 812.9
26 23:10 24.4 87 19.36 22.1 20 24 1011.8 0 41.8 41.0 79.4 210.2 232.0 805.8
26 23:00 24.4 87 19.36 22.1 20 26 1011.9 0 41.8 41.0 79.4 210.2 232.0 805.8
26 22:50 24.4 88 19.58 22.3 20 24 1011.9 0 42.3 41.4 80.5 213.0 235.5 817.9
26 22:40 24.4 88 19.58 22.3 17 19 1011.9 0 42.3 41.4 80.5 213.0 235.5 817.9
26 22:30 24.4 87 19.36 22.1 22 30 1011.7 0 41.8 41.0 79.4 210.2 232.0 805.7
26 22:20 24.5 87 19.47 22.2 22 28 1011.6 0 42.0 41.1 79.9 211.3 233.4 810.6
26 22:10 24.5 86 19.25 22 24 28 1011.5 0 41.6 40.7 78.8 208.5 229.9 798.5
26 22:00 24.5 87 19.47 22.2 22 30 1011.5 0 42.0 41.1 79.8 211.3 233.4 810.5
26 21:50 24.6 87 19.58 22.3 22 28 1011.6 0 42.2 41.3 80.3 212.4 234.8 815.5
26 21:40 24.5 87 19.47 22.2 22 28 1011.8 0 42.0 41.1 79.9 211.3 233.4 810.7
26 21:30 24.5 87 19.47 22.2 20 26 1011.8 0 42.0 41.1 79.9 211.3 233.4 810.7
26 21:20 24.6 87 19.58 22.3 20 24 1011.8 0 42.2 41.3 80.3 212.4 234.8 815.6
26 21:10 24.5 87 19.47 22.2 19 20 1011.9 0 42.0 41.1 79.9 211.3 233.4 810.8
26 21:00 24.5 86 19.25 22 20 26 1011.8 0 41.6 40.7 78.8 208.5 230.0 798.7
26 20:50 24.6 84 18.91 21.7 22 26 1011.7 0 40.8 40.0 77.1 203.9 224.3 779.2
26 20:40 24.6 86 19.36 22.1 20 20 1011.7 0 41.8 40.9 79.2 209.6 231.4 803.6
26 20:30 24.6 83 18.68 21.5 20 28 1011.6 0 40.3 39.6 76.0 201.0 220.8 766.8
26 20:20 24.6 86 19.36 22.1 22 26 1011.4 0 41.8 40.8 79.2 209.6 231.3 803.4
26 20:10 24.6 86 19.36 22.1 22 26 1011.2 0 41.8 40.8 79.2 209.5 231.3 803.3
26 20:00 24.7 86 19.47 22.2 20 28 1011.2 0 42.0 41.0 79.6 210.7 232.7 808.2
26 19:50 24.7 86 19.47 22.2 24 26 1011.1 0 42.0 41.0 79.6 210.6 232.7 808.2
26 19:40 24.7 85 19.24 22 26 30 1011 0 41.5 40.5 78.5 207.7 229.1 795.6
26 19:30 24.7 85 19.24 22 24 30 1010.9 0 41.5 40.5 78.5 207.7 229.0 795.6
26 19:20 24.8 86 19.57 22.3 22 26 1010.8 0 42.2 41.1 80.0 211.6 233.9 812.4
26 19:10 24.7 85 19.24 22 22 26 1010.8 0 41.5 40.5 78.5 207.7 229.0 795.5
26 19:00 24.7 84 19.01 21.8 24 30 1010.6 0 41.0 40.1 77.4 204.7 225.4 783.0
26 18:50 24.7 86 19.47 22.2 22 26 1010.4 0 42.0 41.0 79.6 210.5 232.6 807.8
26 18:40 24.8 86 19.57 22.3 20 24 1010.3 0 42.2 41.1 79.9 211.5 233.8 812.1
26 18:30 24.8 86 19.57 22.3 22 30 1010.2 0 42.2 41.1 79.9 211.5 233.8 812.1
26 18:20 24.8 85 19.35 22.1 24 26 1010.1 0 41.7 40.7 78.9 208.7 230.3 800.0
26 18:10 24.8 85 19.35 22.1 26 32 1009.8 0 41.7 40.7 78.8 208.6 230.3 799.9
26 18:00 24.9 84 19.23 22 26 32 1009.7 0 41.5 40.4 78.2 206.8 228.1 792.3
26 17:50 25 83 19.11 21.9 26 28 1009.4 0 41.2 40.1 77.5 205.0 225.9 784.6
26 17:40 25.1 83 19.21 22 26 28 1009.4 0 41.4 40.2 77.8 206.0 227.1 788.9
26 17:30 25.2 84 19.55 22.3 24 30 1009.4 0 42.1 40.8 79.4 210.0 232.1 806.2
26 17:20 25.2 82 19.09 21.9 24 26 1009.3 0 41.2 39.9 77.2 204.2 225.0 781.4
26 17:10 25.3 82 19.2 22 24 26 1009.3 0 41.4 40.1 77.6 205.3 226.3 786.2
26 17:00 25.4 82 19.3 22.1 22 28 1009.3 0 41.6 40.2 77.9 206.3 227.6 790.6
26 16:50 25.5 82 19.41 22.2 22 26 1009.2 0 41.8 40.4 78.4 207.4 229.0 795.4
26 16:40 25.6 82 19.52 22.3 24 28 1009.1 0 42.0 40.6 78.8 208.5 230.3 800.2
26 16:30 25.6 82 19.52 22.3 20 24 1009.1 0 42.0 40.6 78.8 208.5 230.3 800.2
26 16:20 25.7 81 19.39 22.2 20 24 1009 0 41.7 40.3 78.0 206.5 228.0 792.1
26 16:10 25.9 79 19.13 22 20 22 1009 0 41.2 39.7 76.6 202.7 223.4 776.1
26 16:00 26.1 79 19.34 22.2 19 22 1009.1 0 41.6 40.0 77.4 204.8 226.0 785.3
26 15:50 26.1 78 19.1 22 19 22 1009 0 41.1 39.5 76.3 201.8 222.4 772.5
26 15:40 26.4 80 19.92 22.7 17 20 1009 0 42.8 40.9 79.8 211.3 234.0 813.1
26 15:30 26.3 77 19.06 21.9 17 20 1009.1 0 41.0 39.4 75.9 200.8 221.2 768.4
26 15:20 26.6 78 19.63 22.4 15 17 1009.2 0 42.2 40.3 78.3 207.1 229.0 795.6
26 15:10 26.6 75 18.88 21.8 19 20 1009.1 0 40.6 38.9 74.8 197.8 217.6 756.0
26 15:00 26.7 78 19.74 22.5 15 19 1009.1 0 42.4 40.4 78.7 208.2 230.3 800.3
26 14:50 27 76 19.56 22.4 15 17 1009.3 0 42.0 40.0 77.5 205.2 226.7 787.7
26 14:40 26.8 77 19.6 22.4 15 17 1009.3 0 42.1 40.1 77.9 206.2 227.9 791.9
26 14:30 27.3 74 19.36 22.3 13 17 1009.4 0 41.5 39.5 76.3 201.9 222.8 774.2
26 14:20 27.2 75 19.52 22.4 13 15 1009.5 0 41.9 39.8 77.1 204.2 225.5 783.6
26 14:10 27.7 76 20.33 23.1 13 15 1009.6 0 43.5 41.1 80.4 212.9 236.3 821.3
26 14:00 27.6 75 19.95 22.8 11 15 1009.8 0 42.7 40.4 78.8 208.4 230.9 802.3
26 13:50 27.5 73 19.31 22.2 13 13 1009.9 0 41.4 39.3 75.9 200.8 221.5 769.8
26 13:40 27.9 75 20.29 23.1 13 17 1010 0 43.4 40.9 80.0 211.9 235.1 817.2
26 13:30 27.9 73 19.74 22.6 11 15 1010.1 0 42.2 39.9 77.5 205.1 226.8 788.3
26 13:20 28.1 74 20.24 23 9 11 1010.2 0 43.3 40.7 79.6 210.7 233.8 812.5
26 13:10 28.4 74 20.57 23.3 11 13 1010.3 0 43.9 41.2 80.8 214.0 237.9 826.8
26 13:00 28.9 77 22 24.5 11 15 1010.2 0 46.9 43.7 87.1 230.5 258.3 898.0
26 12:50 27.8 73 19.64 22.5 11 13 1010.3 0 42.0 39.8 77.1 204.2 225.6 784.2
26 12:40 27.6 76 20.22 23 11 15 1010.4 0 43.3 41.0 80.1 211.9 235.1 817.0
26 12:30 27.8 74 19.91 22.7 11 15 1010.5 0 42.6 40.3 78.4 207.5 229.8 798.5
26 12:20 27.7 74 19.8 22.6 11 15 1010.6 0 42.4 40.1 78.0 206.4 228.4 793.8
26 12:10 27.7 77 20.6 23.3 11 13 1010.6 0 44.1 41.6 81.8 216.4 240.6 836.3
26 12:00 27.1 77 19.93 22.7 13 17 1010.6 0 42.7 40.7 79.2 209.7 232.2 807.0
26 11:50 26.9 75 19.2 22.1 15 19 1010.7 0 41.2 39.4 76.0 201.2 221.8 770.5
26 11:40 26.7 75 18.98 21.9 15 17 1010.9 0 40.8 39.1 75.2 199.1 219.1 761.1
26 11:30 27.4 77 20.26 23 13 17 1010.9 0 43.4 41.2 80.5 213.0 236.4 821.5
26 11:20 27.5 78 20.64 23.3 11 13 1010.9 0 44.2 41.8 82.2 217.5 242.0 840.8
26 11:10 27.3 78 20.41 23.1 15 17 1011 0 43.7 41.5 81.3 215.2 239.1 830.7
26 11:00 26.8 78 19.85 22.6 13 17 1011.1 0 42.6 40.7 79.2 209.6 232.0 806.2
26 10:50 26.4 79 19.67 22.5 13 15 1011.1 0 42.2 40.5 78.8 208.5 230.5 800.8
26 10:40 27.1 80 20.7 23.3 9 11 1011.2 0 44.4 42.2 82.9 219.5 244.2 848.7
26 10:30 26.9 77 19.71 22.5 13 17 1011.3 0 42.3 40.4 78.5 207.6 229.6 797.8
26 10:20 27 78 20.08 22.8 13 15 1011.3 0 43.0 41.0 80.1 212.0 235.0 816.5
26 10:10 26.3 77 19.06 21.9 15 17 1011.3 0 41.0 39.5 76.0 201.2 221.5 769.6
26 10:00 26.7 76 19.24 22.1 11 15 1011.3 0 41.3 39.6 76.5 202.3 223.1 775.0
26 09:50 27.1 80 20.7 23.3 9 11 1011.3 0 44.4 42.2 82.9 219.5 244.3 848.8
26 09:40 26.8 80 20.36 23.1 9 11 1011.4 0 43.7 41.7 81.6 216.1 240.0 833.8
26 09:30 26.9 77 19.71 22.5 9 15 1011.4 0 42.3 40.4 78.5 207.6 229.6 797.8

Last Refresh: 27-Feb-2021 02:47:40

Most of the information presented on this site is sourced from the Bureau of Meteorology.  Copyright in all material sourced from the Bureau of Meteorology resides with the Commonwealth of Australia.